createdAt,value
2019-02-27T00:02:09.901Z,99980.00
2019-02-27T00:04:39.817Z,99976.00
2019-02-27T00:07:10.775Z,99968.00
2019-02-27T00:09:40.414Z,99963.00
2019-02-27T00:12:10.206Z,99975.00
2019-02-27T00:14:39.931Z,99967.00
2019-02-27T00:17:09.827Z,99975.00
2019-02-27T00:19:39.771Z,99966.00
2019-02-27T00:22:09.456Z,99958.00
2019-02-27T00:24:39.398Z,99968.00
2019-02-27T00:27:09.089Z,99969.00
2019-02-27T00:29:39.109Z,99971.00
2019-02-27T00:32:08.957Z,99967.00
2019-02-27T00:34:38.646Z,99964.00
2019-02-27T00:37:08.479Z,99954.00
2019-02-27T00:39:38.154Z,99957.00
2019-02-27T00:42:08.008Z,99958.00
2019-02-27T00:44:39.206Z,99945.00
2019-02-27T00:47:08.928Z,99954.00
2019-02-27T00:49:38.494Z,99951.00
2019-02-27T00:52:08.261Z,99941.00
2019-02-27T00:54:38.058Z,99949.00
2019-02-27T00:57:08.044Z,99951.00
2019-02-27T00:59:37.773Z,99957.00
2019-02-27T01:02:07.414Z,99964.00
2019-02-27T01:04:37.226Z,99962.00
2019-02-27T01:07:06.668Z,99951.00
2019-02-27T01:09:39.552Z,99954.00
2019-02-27T01:12:09.224Z,99940.00
2019-02-27T01:14:39.013Z,99937.00
2019-02-27T01:17:08.647Z,99950.00
2019-02-27T01:19:39.253Z,99946.00
2019-02-27T01:22:10.582Z,99943.00
2019-02-27T01:24:40.098Z,99944.00
2019-02-27T01:27:09.751Z,99944.00
2019-02-27T01:29:39.748Z,99936.00
2019-02-27T01:32:09.346Z,99928.00
2019-02-27T01:34:38.936Z,99911.00
2019-02-27T01:37:09.816Z,99915.00
2019-02-27T01:39:41.791Z,99907.00
2019-02-27T01:42:11.169Z,99900.00
2019-02-27T01:44:44.009Z,99907.00
2019-02-27T01:47:14.531Z,99898.00
2019-02-27T01:49:48.849Z,99911.00
2019-02-27T01:52:15.797Z,99899.00
2019-02-27T01:54:48.597Z,99895.00
2019-02-27T01:57:17.107Z,99899.00
2019-02-27T01:59:50.044Z,99889.00
2019-02-27T02:02:18.358Z,99877.00
2019-02-27T02:04:48.118Z,99890.00
2019-02-27T02:07:17.885Z,99885.00
2019-02-27T02:09:52.093Z,99884.00
2019-02-27T02:12:25.975Z,99893.00
2019-02-27T02:15:27.152Z,99883.00
2019-02-27T02:18:39.287Z,99881.00
2019-02-27T02:21:40.226Z,99886.00
2019-02-27T02:24:46.596Z,99882.00
2019-02-27T02:27:41.568Z,99872.00
2019-02-27T02:30:54.627Z,99874.00
2019-02-27T02:33:34.370Z,99873.00
2019-02-27T02:36:54.109Z,99865.00
2019-02-27T02:39:34.798Z,99861.00
2019-02-27T02:42:45.789Z,99863.00
2019-02-27T02:45:57.194Z,99864.00
2019-02-27T02:49:06.501Z,99851.00
2019-02-27T02:51:51.786Z,99864.00
2019-02-27T02:55:05.353Z,99860.00
2019-02-27T02:58:18.988Z,99866.00
2019-02-27T03:01:31.699Z,99860.00
2019-02-27T03:04:56.719Z,99855.00
2019-02-27T03:07:44.750Z,99864.00
2019-02-27T03:10:51.844Z,99857.00
2019-02-27T03:13:51.189Z,99867.00
2019-02-27T03:16:58.146Z,99867.00
2019-02-27T03:19:59.079Z,99859.00
2019-02-27T03:23:15.751Z,99867.00
2019-02-27T03:26:08.000Z,99860.00
2019-02-27T03:29:24.538Z,99842.00
2019-02-27T03:32:14.303Z,99841.00
2019-02-27T03:35:11.372Z,99849.00
2019-02-27T03:37:48.373Z,99845.00
2019-02-27T03:41:06.806Z,99854.00
2019-02-27T03:44:09.677Z,99850.00
2019-02-27T03:47:29.482Z,99839.00
2019-02-27T03:50:40.843Z,99842.00
2019-02-27T03:53:46.430Z,99845.00
2019-02-27T03:56:43.891Z,99838.00
2019-02-27T04:00:02.542Z,99838.00
2019-02-27T04:03:02.980Z,99830.00
2019-02-27T04:06:10.162Z,99823.00
2019-02-27T04:08:55.111Z,99822.00
2019-02-27T04:11:25.037Z,99813.00
2019-02-27T04:13:55.231Z,99819.00
2019-02-27T04:16:28.878Z,99811.00
2019-02-27T04:19:02.945Z,99811.00
2019-02-27T04:21:27.872Z,99805.00
2019-02-27T04:23:58.224Z,99796.00
2019-02-27T04:26:28.122Z,99804.00
2019-02-27T04:28:57.936Z,99802.00
2019-02-27T04:31:30.579Z,99805.00
2019-02-27T04:34:00.360Z,99800.00
2019-02-27T04:36:30.545Z,99801.00
2019-02-27T04:39:02.382Z,99809.00
2019-02-27T04:41:31.591Z,99812.00
2019-02-27T04:44:05.367Z,99805.00
2019-02-27T04:46:34.001Z,99801.00
2019-02-27T04:49:05.457Z,99798.00
2019-02-27T04:51:35.300Z,99805.00
2019-02-27T04:54:07.335Z,99806.00
2019-02-27T04:56:36.199Z,99800.00
2019-02-27T04:59:05.938Z,99804.00
2019-02-27T05:01:36.682Z,99807.00
2019-02-27T05:04:07.018Z,99811.00
2019-02-27T05:06:36.797Z,99805.00
2019-02-27T05:09:07.743Z,99798.00
2019-02-27T05:11:37.666Z,99801.00
2019-02-27T05:14:09.501Z,99807.00
2019-02-27T05:16:40.549Z,99811.00
2019-02-27T05:19:10.800Z,99811.00
2019-02-27T05:21:40.721Z,99809.00
2019-02-27T05:24:10.606Z,99812.00
2019-02-27T05:26:40.342Z,99808.00
2019-02-27T05:29:09.923Z,99819.00
2019-02-27T05:31:39.530Z,99818.00
2019-02-27T05:34:12.566Z,99819.00
2019-02-27T05:36:41.020Z,99827.00
2019-02-27T05:39:10.711Z,99824.00
2019-02-27T05:41:40.755Z,99826.00
2019-02-27T05:44:10.425Z,99812.00
2019-02-27T05:46:40.166Z,99809.00
2019-02-27T05:49:09.985Z,99821.00
2019-02-27T05:51:41.184Z,99818.00
2019-02-27T05:54:10.822Z,99811.00
2019-02-27T05:56:42.043Z,99821.00
2019-02-27T05:59:12.207Z,99826.00
2019-02-27T06:01:42.104Z,99822.00
2019-02-27T06:04:11.920Z,99832.00
2019-02-27T06:06:45.014Z,99823.00
2019-02-27T06:09:13.530Z,99826.00
2019-02-27T06:11:43.419Z,99827.00
2019-02-27T06:14:13.351Z,99826.00
2019-02-27T06:16:43.443Z,99823.00
2019-02-27T06:19:13.286Z,99828.00
2019-02-27T06:21:44.752Z,99813.00
2019-02-27T06:24:14.405Z,99811.00
2019-02-27T06:26:44.381Z,99810.00
2019-02-27T06:29:14.581Z,99807.00
2019-02-27T06:31:44.398Z,99810.00
2019-02-27T06:34:14.305Z,99820.00
2019-02-27T06:36:44.026Z,99810.00
2019-02-27T06:39:15.155Z,99824.00
2019-02-27T06:41:47.469Z,99811.00
2019-02-27T06:44:16.630Z,99805.00
2019-02-27T06:46:46.440Z,99821.00
2019-02-27T06:49:18.219Z,99821.00
2019-02-27T06:51:48.162Z,99833.00
2019-02-27T06:54:18.489Z,99827.00
2019-02-27T06:56:48.547Z,99829.00
2019-02-27T06:59:18.389Z,99827.00
2019-02-27T07:01:48.333Z,99830.00
2019-02-27T07:04:17.905Z,99831.00
2019-02-27T07:06:47.608Z,99826.00
2019-02-27T07:09:17.480Z,99834.00
2019-02-27T07:11:48.884Z,99831.00
2019-02-27T07:14:18.793Z,99824.00
2019-02-27T07:16:48.578Z,99826.00
2019-02-27T07:19:18.333Z,99829.00
2019-02-27T07:21:48.223Z,99826.00
2019-02-27T07:24:17.898Z,99835.00
2019-02-27T07:26:50.267Z,99824.00
2019-02-27T07:29:22.081Z,99827.00
2019-02-27T07:31:52.180Z,99828.00
2019-02-27T07:34:22.211Z,99818.00
2019-02-27T07:36:51.909Z,99817.00
2019-02-27T07:39:21.713Z,99817.00
2019-02-27T07:41:51.542Z,99824.00
2019-02-27T07:44:21.587Z,99817.00
2019-02-27T07:46:51.807Z,99809.00
2019-02-27T07:49:21.801Z,99812.00
2019-02-27T07:51:57.020Z,99808.00
2019-02-27T07:54:28.737Z,99806.00
2019-02-27T07:56:55.656Z,99807.00
2019-02-27T07:59:25.875Z,99801.00
2019-02-27T08:01:55.772Z,99810.00
2019-02-27T08:04:25.504Z,99804.00
2019-02-27T08:06:55.325Z,99806.00
2019-02-27T08:09:29.967Z,99821.00
2019-02-27T08:11:56.979Z,99818.00
2019-02-27T08:14:26.821Z,99806.00
2019-02-27T08:16:57.897Z,99802.00
2019-02-27T08:19:27.944Z,99784.00
2019-02-27T08:21:57.790Z,99802.00
2019-02-27T08:24:27.561Z,99805.00
2019-02-27T08:26:57.411Z,99800.00
2019-02-27T08:29:27.745Z,99806.00
2019-02-27T08:32:00.688Z,99801.00
2019-02-27T08:34:28.998Z,99805.00
2019-02-27T08:36:59.327Z,99809.00
2019-02-27T08:39:29.255Z,99802.00
2019-02-27T08:42:03.254Z,99799.00
2019-02-27T08:44:30.586Z,99789.00
2019-02-27T08:47:00.131Z,99787.00
2019-02-27T08:49:31.848Z,99791.00
2019-02-27T08:52:08.548Z,99788.00
2019-02-27T08:54:38.367Z,99783.00
2019-02-27T08:57:08.152Z,99785.00
2019-02-27T08:59:39.868Z,99783.00
2019-02-27T09:02:10.584Z,99789.00
2019-02-27T09:04:42.861Z,99788.00
2019-02-27T09:07:12.011Z,99784.00
2019-02-27T09:09:41.964Z,99780.00
2019-02-27T09:12:13.431Z,99773.00
2019-02-27T09:14:42.990Z,99775.00
2019-02-27T09:17:12.715Z,99778.00
2019-02-27T09:19:45.448Z,99771.00
2019-02-27T09:22:15.079Z,99765.00
2019-02-27T09:24:44.882Z,99761.00
2019-02-27T09:27:14.654Z,99766.00
2019-02-27T09:29:44.548Z,99767.00
2019-02-27T09:32:14.262Z,99762.00
2019-02-27T09:34:44.093Z,99755.00
2019-02-27T09:37:13.859Z,99758.00
2019-02-27T09:39:43.610Z,99751.00
2019-02-27T09:42:13.389Z,99761.00
2019-02-27T09:44:43.221Z,99758.00
2019-02-27T09:47:13.030Z,99749.00
2019-02-27T09:49:42.948Z,99745.00
2019-02-27T09:52:12.807Z,99734.00
2019-02-27T09:54:46.811Z,99738.00
2019-02-27T09:57:14.245Z,99738.00
2019-02-27T09:59:44.053Z,99744.00
2019-02-27T10:02:13.810Z,99741.00
2019-02-27T10:04:43.643Z,99725.00
2019-02-27T10:07:14.638Z,99720.00
2019-02-27T10:09:44.720Z,99724.00
2019-02-27T10:12:14.757Z,99722.00
2019-02-27T10:14:44.574Z,99724.00
2019-02-27T10:17:14.399Z,99724.00
2019-02-27T10:19:44.196Z,99709.00
2019-02-27T10:22:16.780Z,99719.00
2019-02-27T10:24:45.900Z,99705.00
2019-02-27T10:27:15.677Z,99703.00
2019-02-27T10:29:47.929Z,99706.00
2019-02-27T10:32:17.349Z,99692.00
2019-02-27T10:34:46.989Z,99689.00
2019-02-27T10:37:18.886Z,99689.00
2019-02-27T10:39:48.125Z,99677.00
2019-02-27T10:42:22.594Z,99679.00
2019-02-27T10:44:53.263Z,99663.00
2019-02-27T10:47:23.177Z,99666.00
2019-02-27T10:49:53.121Z,99660.00
2019-02-27T10:52:24.411Z,99659.00
2019-02-27T10:54:54.384Z,99653.00
2019-02-27T10:57:24.185Z,99641.00
2019-02-27T10:59:54.113Z,99639.00
2019-02-27T11:02:24.168Z,99635.00
2019-02-27T11:04:53.922Z,99639.00
2019-02-27T11:07:23.459Z,99641.00
2019-02-27T11:09:53.383Z,99612.00
2019-02-27T11:12:23.285Z,99606.00
2019-02-27T11:14:53.077Z,99608.00
2019-02-27T11:17:23.963Z,99608.00
2019-02-27T11:19:53.854Z,99604.00
2019-02-27T11:22:24.087Z,99594.00
2019-02-27T11:24:53.773Z,99591.00
2019-02-27T11:27:23.988Z,99585.00
2019-02-27T11:29:53.626Z,99579.00
2019-02-27T11:32:24.556Z,99580.00
2019-02-27T11:34:54.408Z,99570.00
2019-02-27T11:37:25.211Z,99572.00
2019-02-27T11:39:55.052Z,99569.00
2019-02-27T11:42:28.890Z,99555.00
2019-02-27T11:44:57.418Z,99556.00
2019-02-27T11:47:27.343Z,99562.00
2019-02-27T11:49:57.580Z,99563.00
2019-02-27T11:52:28.676Z,99565.00
2019-02-27T11:54:58.599Z,99549.00
2019-02-27T11:57:31.361Z,99545.00
2019-02-27T12:00:01.204Z,99540.00
2019-02-27T12:02:37.004Z,99532.00
2019-02-27T12:05:02.486Z,99524.00
2019-02-27T12:07:32.260Z,99528.00
2019-02-27T12:10:02.127Z,99534.00
2019-02-27T12:12:31.899Z,99533.00
2019-02-27T12:15:01.656Z,99524.00
2019-02-27T12:17:31.423Z,99519.00
2019-02-27T12:20:01.066Z,99524.00
2019-02-27T12:22:32.959Z,99515.00
2019-02-27T12:25:02.422Z,99511.00
2019-02-27T12:27:48.322Z,99518.00
2019-02-27T12:30:04.032Z,99505.00
2019-02-27T12:32:33.861Z,99489.00
2019-02-27T12:35:03.794Z,99489.00
2019-02-27T12:37:34.920Z,99479.00
2019-02-27T12:40:05.162Z,99479.00
2019-02-27T12:42:37.355Z,99475.00
2019-02-27T12:45:07.479Z,99462.00
2019-02-27T12:47:40.654Z,99467.00
2019-02-27T12:50:11.217Z,99462.00
2019-02-27T12:52:44.373Z,99469.00
2019-02-27T12:55:12.883Z,99457.00
2019-02-27T12:57:42.597Z,99467.00
2019-02-27T13:00:15.087Z,99468.00
2019-02-27T13:02:45.169Z,99459.00
2019-02-27T13:05:17.089Z,99462.00
2019-02-27T13:07:47.064Z,99456.00
2019-02-27T13:10:18.612Z,99457.00
2019-02-27T13:12:49.264Z,99447.00
2019-02-27T13:15:20.995Z,99450.00
2019-02-27T13:17:56.244Z,99448.00
2019-02-27T13:20:24.045Z,99445.00
2019-02-27T13:22:54.422Z,99431.00
2019-02-27T13:25:27.410Z,99439.00
2019-02-27T13:27:57.516Z,99426.00
2019-02-27T13:30:27.389Z,99428.00
2019-02-27T13:33:01.250Z,99423.00
2019-02-27T13:35:30.684Z,99419.00
2019-02-27T13:38:00.665Z,99420.00
2019-02-27T13:40:35.354Z,99411.00
2019-02-27T13:43:02.303Z,99409.00
2019-02-27T13:45:32.752Z,99405.00
2019-02-27T13:48:05.862Z,99404.00
2019-02-27T13:50:33.849Z,99393.00
2019-02-27T13:53:03.770Z,99390.00
2019-02-27T13:55:33.774Z,99386.00
2019-02-27T13:58:03.989Z,99372.00
2019-02-27T14:00:33.718Z,99375.00
2019-02-27T14:03:03.826Z,99369.00
2019-02-27T14:05:36.069Z,99368.00
2019-02-27T14:08:04.903Z,99360.00
2019-02-27T14:10:34.623Z,99358.00
2019-02-27T14:13:08.778Z,99366.00
2019-02-27T14:15:55.203Z,99355.00
2019-02-27T14:18:24.969Z,99350.00
2019-02-27T14:20:54.863Z,99355.00
2019-02-27T14:23:24.473Z,99347.00
2019-02-27T14:25:54.966Z,99338.00
2019-02-27T14:28:55.143Z,99339.00
2019-02-27T14:31:25.591Z,99326.00
2019-02-27T14:33:55.491Z,99325.00
2019-02-27T14:36:25.773Z,99333.00
2019-02-27T14:38:56.482Z,99328.00
2019-02-27T14:41:26.542Z,99317.00
2019-02-27T14:43:59.250Z,99323.00
2019-02-27T14:46:29.331Z,99314.00
2019-02-27T14:48:59.275Z,99294.00
2019-02-27T14:51:32.343Z,99298.00
2019-02-27T14:54:02.661Z,99293.00
2019-02-27T14:56:32.465Z,99290.00
2019-02-27T14:59:03.284Z,99290.00
2019-02-27T15:01:33.038Z,99289.00
2019-02-27T15:04:02.544Z,99287.00
2019-02-27T15:06:32.765Z,99273.00
2019-02-27T15:09:03.533Z,99276.00
2019-02-27T15:11:33.827Z,99267.00
2019-02-27T15:14:03.558Z,99267.00
2019-02-27T15:16:35.068Z,99267.00
2019-02-27T15:19:05.219Z,99268.00
2019-02-27T15:21:35.312Z,99257.00
2019-02-27T15:24:05.206Z,99249.00
2019-02-27T15:26:34.899Z,99262.00
2019-02-27T15:29:05.729Z,99246.00
2019-02-27T15:31:36.018Z,99247.00
2019-02-27T15:34:05.611Z,99239.00
2019-02-27T15:36:35.382Z,99233.00
2019-02-27T15:39:05.864Z,99224.00
2019-02-27T15:41:36.000Z,99229.00
2019-02-27T15:44:05.407Z,99229.00
2019-02-27T15:46:35.219Z,99231.00
2019-02-27T15:49:05.021Z,99224.00
2019-02-27T15:51:34.822Z,99219.00
2019-02-27T15:54:04.438Z,99211.00
2019-02-27T15:56:34.976Z,99223.00
2019-02-27T15:59:08.101Z,99212.00
2019-02-27T16:01:36.433Z,99211.00
2019-02-27T16:04:06.474Z,99204.00
2019-02-27T16:06:39.897Z,99199.00
2019-02-27T16:09:10.479Z,99204.00
2019-02-27T16:11:40.492Z,99201.00
2019-02-27T16:14:10.533Z,99190.00
2019-02-27T16:16:40.822Z,99203.00
2019-02-27T16:19:10.981Z,99199.00
2019-02-27T16:21:41.305Z,99187.00
2019-02-27T16:24:11.118Z,99198.00
2019-02-27T16:26:41.229Z,99191.00
2019-02-27T16:29:11.050Z,99195.00
2019-02-27T16:31:41.012Z,99198.00
2019-02-27T16:34:11.448Z,99193.00
2019-02-27T16:36:41.310Z,99194.00
2019-02-27T16:39:11.527Z,99195.00
2019-02-27T16:41:41.316Z,99188.00
2019-02-27T16:44:11.189Z,99181.00
2019-02-27T16:46:44.736Z,99183.00
2019-02-27T16:49:12.938Z,99183.00
2019-02-27T16:51:42.852Z,99185.00
2019-02-27T16:54:12.532Z,99187.00
2019-02-27T16:56:46.225Z,99172.00
2019-02-27T16:59:14.216Z,99175.00
2019-02-27T17:01:44.073Z,99183.00
2019-02-27T17:04:13.957Z,99168.00
2019-02-27T17:06:43.680Z,99176.00
2019-02-27T17:09:13.899Z,99176.00
2019-02-27T17:11:43.814Z,99166.00
2019-02-27T17:14:14.615Z,99159.00
2019-02-27T17:16:45.472Z,99170.00
2019-02-27T17:19:15.389Z,99166.00
2019-02-27T17:21:45.196Z,99168.00
2019-02-27T17:24:20.940Z,99159.00
2019-02-27T17:26:46.642Z,99160.00
2019-02-27T17:29:16.331Z,99152.00
2019-02-27T17:31:49.413Z,99149.00
2019-02-27T17:34:17.687Z,99152.00
2019-02-27T17:36:47.585Z,99146.00
2019-02-27T17:39:17.234Z,99145.00
2019-02-27T17:41:46.840Z,99147.00
2019-02-27T17:44:16.588Z,99140.00
2019-02-27T17:46:46.476Z,99137.00
2019-02-27T17:49:16.540Z,99151.00
2019-02-27T17:51:46.463Z,99151.00
2019-02-27T17:54:16.294Z,99149.00
2019-02-27T17:56:47.171Z,99135.00
2019-02-27T17:59:17.788Z,99148.00
2019-02-27T18:01:47.575Z,99143.00
2019-02-27T18:04:17.387Z,99132.00
2019-02-27T18:06:47.218Z,99144.00
2019-02-27T18:09:17.135Z,99145.00
2019-02-27T18:11:49.471Z,99142.00
2019-02-27T18:14:18.368Z,99136.00
2019-02-27T18:16:48.041Z,99135.00
2019-02-27T18:19:18.687Z,99131.00
2019-02-27T18:21:48.670Z,99123.00
2019-02-27T18:24:18.582Z,99130.00
2019-02-27T18:26:51.141Z,99125.00
2019-02-27T18:29:20.132Z,99114.00
2019-02-27T18:31:49.918Z,99123.00
2019-02-27T18:34:21.652Z,99122.00
2019-02-27T18:36:51.403Z,99127.00
2019-02-27T18:39:21.418Z,99122.00
2019-02-27T18:41:51.141Z,99122.00
2019-02-27T18:44:24.031Z,99129.00
2019-02-27T18:46:56.274Z,99124.00
2019-02-27T18:49:25.296Z,99124.00
2019-02-27T18:51:55.191Z,99120.00
2019-02-27T18:54:26.044Z,99120.00
2019-02-27T18:56:55.800Z,99121.00
2019-02-27T18:59:29.402Z,99115.00
2019-02-27T19:01:58.915Z,99120.00
2019-02-27T19:04:28.688Z,99116.00
2019-02-27T19:06:58.576Z,99111.00
2019-02-27T19:09:29.334Z,99110.00
2019-02-27T19:11:59.753Z,99101.00
2019-02-27T19:14:29.532Z,99091.00
2019-02-27T19:16:59.884Z,99091.00
2019-02-27T19:19:29.719Z,99100.00
2019-02-27T19:22:04.314Z,99083.00
2019-02-27T19:24:34.621Z,99095.00
2019-02-27T19:27:04.462Z,99091.00
2019-02-27T19:29:34.859Z,99087.00
2019-02-27T19:32:05.225Z,99082.00
2019-02-27T19:34:35.424Z,99085.00
2019-02-27T19:37:06.006Z,99081.00
2019-02-27T19:39:35.758Z,99087.00
2019-02-27T19:42:05.691Z,99085.00
2019-02-27T19:44:35.415Z,99075.00
2019-02-27T19:47:05.107Z,99080.00
2019-02-27T19:49:36.631Z,99083.00
2019-02-27T19:52:06.656Z,99073.00
2019-02-27T19:54:36.601Z,99082.00
2019-02-27T19:57:08.439Z,99062.00
2019-02-27T19:59:38.049Z,99075.00
2019-02-27T20:02:07.707Z,99068.00
2019-02-27T20:04:42.521Z,99062.00
2019-02-27T20:07:08.962Z,99062.00
2019-02-27T20:09:38.687Z,99063.00
2019-02-27T20:12:09.581Z,99055.00
2019-02-27T20:14:39.709Z,99059.00
2019-02-27T20:17:09.628Z,99035.00
2019-02-27T20:19:39.436Z,99031.00
2019-02-27T20:22:09.861Z,99022.00
2019-02-27T20:24:39.783Z,99029.00
2019-02-27T20:27:09.679Z,99016.00
2019-02-27T20:29:40.886Z,99024.00
2019-02-27T20:32:11.176Z,99016.00
2019-02-27T20:34:42.619Z,99011.00
2019-02-27T20:37:12.763Z,99004.00
2019-02-27T20:39:42.967Z,99002.00
2019-02-27T20:42:13.728Z,99007.00
2019-02-27T20:44:44.032Z,99003.00
2019-02-27T20:47:13.963Z,99006.00
2019-02-27T20:49:44.669Z,98997.00
2019-02-27T20:52:15.669Z,98994.00
2019-02-27T20:54:45.287Z,98998.00
2019-02-27T20:57:14.956Z,98990.00
2019-02-27T20:59:44.950Z,98981.00
2019-02-27T21:02:14.975Z,98981.00
2019-02-27T21:04:44.810Z,98983.00
2019-02-27T21:07:22.036Z,98979.00
2019-02-27T21:09:46.242Z,98977.00
2019-02-27T21:12:16.215Z,98976.00
2019-02-27T21:14:46.007Z,98974.00
2019-02-27T21:17:19.462Z,98964.00
2019-02-27T21:19:48.588Z,98962.00
2019-02-27T21:22:18.544Z,98969.00
2019-02-27T21:24:48.446Z,98952.00
2019-02-27T21:27:18.363Z,98946.00
2019-02-27T21:29:48.360Z,98954.00
2019-02-27T21:32:18.283Z,98945.00
2019-02-27T21:34:49.432Z,98944.00
2019-02-27T21:37:19.412Z,98933.00
2019-02-27T21:39:49.478Z,98935.00
2019-02-27T21:42:19.678Z,98954.00
2019-02-27T21:44:49.485Z,98951.00
2019-02-27T21:47:19.273Z,98959.00
2019-02-27T21:49:48.906Z,98939.00
2019-02-27T21:52:21.610Z,98947.00
2019-02-27T21:54:50.487Z,98942.00
2019-02-27T21:57:22.879Z,98936.00
2019-02-27T21:59:53.133Z,98930.00
2019-02-27T22:02:22.896Z,98924.00
2019-02-27T22:04:52.685Z,98931.00
2019-02-27T22:07:22.730Z,98941.00
2019-02-27T22:09:54.235Z,98937.00
2019-02-27T22:12:23.985Z,98921.00
2019-02-27T22:14:56.930Z,98925.00
2019-02-27T22:17:26.632Z,98911.00
2019-02-27T22:19:56.207Z,98924.00
2019-02-27T22:22:26.038Z,98916.00
2019-02-27T22:24:56.369Z,98928.00
2019-02-27T22:27:27.471Z,98922.00
2019-02-27T22:29:59.659Z,98921.00
2019-02-27T22:32:28.761Z,98905.00
2019-02-27T22:34:59.207Z,98917.00
2019-02-27T22:37:30.496Z,98905.00
2019-02-27T22:40:06.579Z,98907.00
2019-02-27T22:42:32.090Z,98910.00
2019-02-27T22:45:04.148Z,98906.00
2019-02-27T22:47:33.543Z,98910.00
2019-02-27T22:50:05.883Z,98892.00
2019-02-27T22:52:35.920Z,98898.00
2019-02-27T22:55:07.306Z,98891.00
2019-02-27T22:57:38.133Z,98892.00
2019-02-27T23:00:50.546Z,98893.00
2019-02-27T23:03:23.792Z,98874.00
2019-02-27T23:05:53.251Z,98874.00
2019-02-27T23:08:23.883Z,98868.00
2019-02-27T23:10:53.774Z,98875.00
2019-02-27T23:13:23.504Z,98858.00
2019-02-27T23:15:57.795Z,98872.00
2019-02-27T23:18:26.500Z,98858.00
2019-02-27T23:20:56.396Z,98851.00
2019-02-27T23:23:26.275Z,98852.00
2019-02-27T23:25:56.470Z,98848.00
2019-02-27T23:28:26.278Z,98853.00
2019-02-27T23:30:56.078Z,98850.00
2019-02-27T23:33:26.204Z,98860.00
2019-02-27T23:35:56.042Z,98845.00
2019-02-27T23:38:25.815Z,98843.00
2019-02-27T23:40:55.549Z,98836.00
2019-02-27T23:43:25.359Z,98837.00
2019-02-27T23:45:55.283Z,98842.00
2019-02-27T23:48:25.081Z,98831.00
2019-02-27T23:50:54.883Z,98831.00
2019-02-27T23:53:27.087Z,98830.00
2019-02-27T23:55:57.229Z,98823.00
2019-02-27T23:58:29.434Z,98830.00
